createdAt,value
2023-05-05T00:02:59.770Z,9.88
2023-05-05T00:06:17.102Z,9.98
2023-05-05T00:09:33.507Z,10.85
2023-05-05T00:12:50.209Z,11.38
2023-05-05T00:16:06.860Z,10.45
2023-05-05T00:19:23.429Z,11.63
2023-05-05T00:22:40.162Z,12.28
2023-05-05T00:25:56.888Z,11.83
2023-05-05T00:29:13.786Z,12.35
2023-05-05T00:32:30.618Z,11.33
2023-05-05T00:35:47.718Z,10.58
2023-05-05T00:39:04.181Z,11.15
2023-05-05T00:45:52.924Z,11.25
2023-05-05T00:49:10.937Z,10.50
2023-05-05T00:52:27.930Z,10.90
2023-05-05T00:55:47.516Z,11.50
2023-05-05T01:02:20.001Z,10.55
2023-05-05T01:05:43.047Z,11.33
2023-05-05T01:09:09.881Z,11.38
2023-05-05T01:12:31.013Z,11.33
2023-05-05T01:15:52.532Z,10.93
2023-05-05T01:19:21.399Z,11.13
2023-05-05T01:22:46.509Z,11.88
2023-05-05T01:26:48.022Z,12.00
2023-05-05T01:30:19.775Z,11.53
2023-05-05T01:33:44.862Z,11.60
2023-05-05T01:37:10.105Z,10.95
2023-05-05T01:40:32.085Z,11.83
2023-05-05T01:47:07.671Z,11.58
2023-05-05T01:50:26.416Z,11.47
2023-05-05T01:53:44.486Z,11.58
2023-05-05T01:57:04.243Z,11.28
2023-05-05T02:00:23.611Z,11.25
2023-05-05T02:06:58.386Z,11.90
2023-05-05T02:10:18.769Z,11.53
2023-05-05T02:13:38.379Z,11.58
2023-05-05T02:16:55.588Z,11.65
2023-05-05T02:20:15.942Z,11.98
2023-05-05T02:23:33.243Z,12.10
2023-05-05T02:26:53.819Z,11.30
2023-05-05T02:30:15.000Z,10.40
2023-05-05T02:33:35.357Z,10.83
2023-05-05T02:36:55.235Z,11.20
2023-05-05T02:40:16.295Z,10.63
2023-05-05T02:46:50.517Z,10.83
2023-05-05T02:50:07.665Z,11.05
2023-05-05T02:53:27.732Z,11.70
2023-05-05T03:02:09.713Z,12.15
2023-05-05T03:05:31.532Z,11.85
2023-05-05T03:08:53.692Z,11.90
2023-05-05T03:15:27.281Z,12.38
2023-05-05T03:18:46.011Z,12.83
2023-05-05T03:22:02.714Z,12.05
2023-05-05T03:25:20.471Z,12.98
2023-05-05T03:28:37.606Z,12.13
2023-05-05T03:31:55.900Z,12.20
2023-05-05T03:35:15.430Z,12.03
2023-05-05T03:38:33.390Z,13.68
2023-05-05T03:41:52.012Z,13.70
2023-05-05T03:45:09.733Z,13.03
2023-05-05T03:48:27.567Z,12.55
2023-05-05T03:51:44.172Z,12.90
2023-05-05T03:55:01.772Z,12.68
2023-05-05T03:58:18.561Z,13.53
2023-05-05T04:01:36.224Z,12.85
2023-05-05T04:04:54.264Z,12.40
2023-05-05T04:08:11.792Z,11.88
2023-05-05T04:11:29.786Z,12.73
2023-05-05T04:14:47.078Z,13.20
2023-05-05T04:18:04.670Z,13.25
2023-05-05T04:21:21.347Z,11.50
2023-05-05T04:24:38.186Z,11.78
2023-05-05T04:27:54.822Z,12.40
2023-05-05T04:31:12.633Z,13.05
2023-05-05T04:34:30.342Z,13.93
2023-05-05T04:37:47.285Z,13.30
2023-05-05T04:41:09.521Z,12.70
2023-05-05T04:44:26.911Z,12.98
2023-05-05T04:47:49.145Z,12.20
2023-05-05T04:51:06.417Z,12.60
2023-05-05T04:54:23.673Z,12.50
2023-05-05T04:57:41.204Z,11.98
2023-05-05T05:00:57.862Z,12.90
2023-05-05T05:04:14.825Z,13.13
2023-05-05T05:07:33.551Z,13.00
2023-05-05T05:10:51.373Z,11.68
2023-05-05T05:14:07.768Z,12.78
2023-05-05T05:17:25.845Z,12.48
2023-05-05T05:20:42.416Z,12.30
2023-05-05T05:24:00.178Z,11.73
2023-05-05T05:27:18.350Z,10.48
2023-05-05T05:30:35.499Z,10.78
2023-05-05T05:33:53.865Z,12.13
2023-05-05T05:37:11.993Z,11.50
2023-05-05T05:40:28.828Z,12.35
2023-05-05T05:43:49.420Z,11.55
2023-05-05T05:47:06.663Z,12.10
2023-05-05T05:50:27.093Z,13.48
2023-05-05T05:53:44.150Z,11.40
2023-05-05T05:57:03.717Z,11.33
2023-05-05T06:01:21.625Z,11.58
2023-05-05T06:04:39.211Z,10.05
2023-05-05T06:07:55.656Z,9.45
2023-05-05T06:11:13.009Z,8.78
2023-05-05T06:17:46.054Z,10.20
2023-05-05T06:21:03.149Z,8.68
2023-05-05T06:24:20.269Z,10.78
2023-05-05T06:30:53.906Z,12.93
2023-05-05T06:34:10.354Z,13.80
2023-05-05T06:37:29.158Z,12.68
2023-05-05T06:40:51.052Z,12.18
2023-05-05T06:44:07.690Z,9.63
2023-05-05T06:47:24.122Z,8.10
2023-05-05T06:53:53.388Z,8.23
2023-05-05T06:57:10.066Z,7.60
2023-05-05T07:03:41.967Z,7.13
2023-05-05T07:07:00.043Z,7.30
2023-05-05T07:10:19.432Z,7.28
2023-05-05T07:13:35.710Z,9.43
2023-05-05T07:16:54.715Z,6.90
2023-05-05T07:20:15.525Z,6.50
2023-05-05T07:23:32.047Z,6.40
2023-05-05T07:26:49.146Z,7.08
2023-05-05T07:30:10.157Z,6.75
2023-05-05T07:33:26.493Z,6.88
2023-05-05T07:39:57.113Z,6.50
2023-05-05T07:46:29.512Z,22.75
2023-05-05T07:49:48.914Z,29.43
2023-05-05T07:56:21.907Z,7.85
2023-05-05T07:59:41.943Z,6.83
2023-05-05T08:03:02.619Z,6.75
2023-05-05T08:06:26.148Z,6.33
2023-05-05T08:09:45.584Z,7.00
2023-05-05T08:13:01.988Z,5.45
2023-05-05T08:16:19.912Z,6.95
2023-05-05T08:19:36.254Z,5.73
2023-05-05T08:22:52.839Z,5.40
2023-05-05T08:26:10.162Z,5.90
2023-05-05T08:29:26.927Z,4.30
2023-05-05T08:32:43.823Z,4.10
2023-05-05T08:36:00.472Z,4.03
2023-05-05T08:39:17.537Z,3.95
2023-05-05T08:42:38.558Z,2.95
2023-05-05T08:45:57.436Z,2.40
2023-05-05T08:49:19.219Z,2.40
2023-05-05T08:52:40.987Z,2.98
2023-05-05T08:56:01.660Z,2.83
2023-05-05T08:59:19.698Z,1.98
2023-05-05T09:02:37.927Z,1.70
2023-05-05T09:05:56.617Z,1.60
2023-05-05T09:09:14.521Z,1.70
2023-05-05T09:12:32.204Z,1.53
2023-05-05T09:15:48.724Z,1.80
2023-05-05T09:19:12.859Z,1.88
2023-05-05T09:22:41.610Z,2.10
2023-05-05T09:26:13.507Z,2.00
2023-05-05T09:29:30.808Z,1.60
2023-05-05T09:32:59.085Z,4.58
2023-05-05T09:36:16.697Z,1.80
2023-05-05T09:39:36.008Z,1.70
2023-05-05T09:42:52.756Z,2.10
2023-05-05T09:46:17.635Z,1.98
2023-05-05T09:49:37.694Z,13.13
2023-05-05T09:53:04.085Z,2.58
2023-05-05T09:56:21.685Z,2.18
2023-05-05T09:59:39.941Z,2.40
2023-05-05T10:02:56.417Z,2.40
2023-05-05T10:06:13.413Z,2.55
2023-05-05T10:09:30.350Z,2.40
2023-05-05T10:12:47.859Z,19.33
2023-05-05T10:16:05.852Z,5.78
2023-05-05T10:19:24.990Z,3.33
2023-05-05T10:22:43.709Z,2.50
2023-05-05T10:26:07.012Z,2.10
2023-05-05T10:29:29.343Z,2.23
2023-05-05T10:33:07.883Z,2.13
2023-05-05T10:36:13.061Z,2.23
2023-05-05T10:39:30.522Z,2.18
2023-05-05T10:46:04.513Z,2.48
2023-05-05T10:49:27.712Z,2.03
2023-05-05T10:52:49.216Z,2.38
2023-05-05T10:56:20.245Z,2.00
2023-05-05T11:02:52.358Z,2.25
2023-05-05T11:06:24.764Z,2.00
2023-05-05T11:09:43.735Z,2.43
2023-05-05T11:16:52.793Z,2.70
2023-05-05T11:20:11.293Z,6.03
2023-05-05T11:23:35.609Z,2.88
2023-05-05T11:27:11.786Z,2.40
2023-05-05T11:30:54.637Z,2.55
2023-05-05T11:34:33.415Z,2.30
2023-05-05T11:38:11.928Z,3.50
2023-05-05T11:41:43.066Z,3.03
2023-05-05T11:45:02.853Z,2.68
2023-05-05T11:48:36.189Z,2.60
2023-05-05T11:52:02.809Z,2.53
2023-05-05T11:55:21.774Z,2.45
2023-05-05T12:01:52.409Z,2.50
2023-05-05T12:05:16.474Z,2.18
2023-05-05T12:08:54.574Z,3.50
2023-05-05T12:12:16.839Z,2.68
2023-05-05T12:18:55.470Z,2.88
2023-05-05T12:22:14.473Z,2.50
2023-05-05T12:25:30.993Z,2.80
2023-05-05T12:28:57.785Z,2.70
2023-05-05T12:32:16.450Z,2.38
2023-05-05T12:38:51.166Z,2.53
2023-05-05T12:42:16.142Z,2.45
2023-05-05T12:45:32.716Z,2.28
2023-05-05T12:48:50.472Z,3.25
2023-05-05T12:52:08.776Z,3.10
2023-05-05T12:55:25.361Z,2.90
2023-05-05T13:02:03.246Z,2.35
2023-05-05T13:05:20.932Z,1.88
2023-05-05T13:08:52.922Z,2.20
2023-05-05T13:12:12.062Z,2.40
2023-05-05T13:15:28.891Z,2.45
2023-05-05T13:18:55.365Z,2.10
2023-05-05T13:22:12.084Z,1.98
2023-05-05T13:25:28.487Z,2.00
2023-05-05T13:28:45.570Z,1.90
2023-05-05T13:32:02.019Z,3.30
2023-05-05T13:35:19.042Z,3.70
2023-05-05T13:38:35.813Z,2.10
2023-05-05T13:41:52.427Z,2.10
2023-05-05T13:45:10.407Z,1.70
2023-05-05T13:48:29.838Z,1.88
2023-05-05T13:51:47.716Z,2.05
2023-05-05T13:55:04.503Z,1.80
2023-05-05T13:58:21.165Z,3.33
2023-05-05T14:01:38.040Z,2.65
2023-05-05T14:04:57.013Z,2.73
2023-05-05T14:08:14.124Z,1.65
2023-05-05T14:11:32.512Z,1.65
2023-05-05T14:14:48.842Z,1.30
2023-05-05T14:18:05.438Z,1.55
2023-05-05T14:21:21.848Z,23.60
2023-05-05T14:24:38.301Z,4.85
2023-05-05T14:27:54.815Z,1.50
2023-05-05T14:31:13.154Z,2.20
2023-05-05T14:34:29.641Z,2.90
2023-05-05T14:37:46.611Z,8.53
2023-05-05T14:41:03.217Z,3.50
2023-05-05T14:44:19.657Z,1.70
2023-05-05T14:47:36.653Z,2.20
2023-05-05T14:50:53.089Z,1.60
2023-05-05T14:54:24.130Z,1.30
2023-05-05T15:00:42.436Z,1.48
2023-05-05T15:03:58.924Z,22.35
2023-05-05T15:07:15.299Z,5.83
2023-05-05T15:10:32.435Z,2.30
2023-05-05T15:17:07.471Z,1.45
2023-05-05T15:20:24.011Z,1.65
2023-05-05T15:23:41.079Z,1.50
2023-05-05T15:26:57.571Z,1.90
2023-05-05T15:33:31.224Z,1.45
2023-05-05T15:36:47.608Z,1.90
2023-05-05T15:40:06.910Z,1.60
2023-05-05T15:43:23.409Z,1.93
2023-05-05T15:50:44.571Z,4.20
2023-05-05T15:54:01.235Z,2.15
2023-05-05T15:57:19.185Z,2.10
2023-05-05T16:00:37.343Z,1.65
2023-05-05T16:03:53.835Z,1.93
2023-05-05T16:07:10.450Z,1.60
2023-05-05T16:10:27.409Z,1.85
2023-05-05T16:19:07.469Z,1.50
2023-05-05T16:22:23.948Z,1.85
2023-05-05T16:25:40.440Z,1.55
2023-05-05T16:28:57.048Z,1.80
2023-05-05T16:32:13.899Z,2.50
2023-05-05T16:35:30.643Z,1.73
2023-05-05T16:38:47.294Z,17.58
2023-05-05T16:42:52.767Z,4.68
2023-05-05T16:46:07.028Z,2.65
2023-05-05T16:49:25.087Z,1.50
2023-05-05T16:52:42.064Z,1.55
2023-05-05T16:56:02.122Z,4.80
2023-05-05T16:59:20.149Z,2.70
2023-05-05T17:02:36.677Z,3.88
2023-05-05T17:05:54.691Z,2.13
2023-05-05T17:09:11.672Z,1.90
2023-05-05T17:12:28.479Z,1.70
2023-05-05T17:15:45.560Z,1.80
2023-05-05T17:19:03.404Z,2.70
2023-05-05T17:22:19.900Z,3.18
2023-05-05T17:25:36.369Z,2.10
2023-05-05T17:28:52.819Z,2.08
2023-05-05T17:35:17.640Z,1.90
2023-05-05T17:38:38.628Z,2.80
2023-05-05T17:41:55.330Z,2.03
2023-05-05T17:45:13.366Z,2.55
2023-05-05T17:48:31.092Z,2.20
2023-05-05T17:51:47.912Z,2.20
2023-05-05T17:55:05.772Z,2.10
2023-05-05T18:01:38.235Z,2.88
2023-05-05T18:04:54.678Z,2.25
2023-05-05T18:08:11.328Z,2.40
2023-05-05T18:11:42.167Z,2.33
2023-05-05T18:14:55.868Z,2.63
2023-05-05T18:18:13.120Z,2.53
2023-05-05T18:21:35.604Z,2.80
2023-05-05T18:25:03.178Z,2.63
2023-05-05T18:28:22.540Z,2.58
2023-05-05T18:31:39.298Z,2.45
2023-05-05T18:34:55.873Z,3.48
2023-05-05T18:38:12.184Z,3.88
2023-05-05T18:41:31.664Z,5.15
2023-05-05T18:48:04.577Z,4.90
2023-05-05T18:51:20.938Z,4.25
2023-05-05T18:54:38.012Z,4.15
2023-05-05T18:57:54.617Z,5.40
2023-05-05T19:04:31.738Z,3.90
2023-05-05T19:07:47.571Z,4.10
2023-05-05T19:11:04.525Z,4.83
2023-05-05T19:17:38.009Z,5.23
2023-05-05T19:21:09.117Z,4.55
2023-05-05T19:24:36.599Z,4.58
2023-05-05T19:27:53.534Z,48.55
2023-05-05T19:31:10.137Z,14.50
2023-05-05T19:34:26.898Z,11.33
2023-05-05T19:37:44.325Z,10.55
2023-05-05T19:41:01.506Z,9.60
2023-05-05T19:50:44.769Z,8.60
2023-05-05T19:54:01.382Z,8.73
2023-05-05T19:57:18.168Z,7.05
2023-05-05T20:00:34.967Z,8.73
2023-05-05T20:03:51.952Z,8.38
2023-05-05T20:07:09.147Z,8.38
2023-05-05T20:10:27.605Z,9.73
2023-05-05T20:13:44.056Z,10.00
2023-05-05T20:17:00.576Z,10.70
2023-05-05T20:20:21.296Z,11.28
2023-05-05T20:23:39.183Z,11.63
2023-05-05T20:26:56.446Z,12.70
2023-05-05T20:30:16.190Z,12.35
2023-05-05T20:33:33.222Z,10.90
2023-05-05T20:36:49.684Z,11.73
2023-05-05T20:40:07.090Z,11.65
2023-05-05T20:43:24.122Z,13.68
2023-05-05T20:49:57.237Z,11.23
2023-05-05T20:53:15.973Z,10.13
2023-05-05T20:56:32.735Z,11.10
2023-05-05T21:03:05.951Z,10.25
2023-05-05T21:06:24.014Z,10.70
2023-05-05T21:09:40.801Z,10.88
2023-05-05T21:12:57.684Z,10.55
2023-05-05T21:19:31.172Z,11.00
2023-05-05T21:22:48.892Z,11.23
2023-05-05T21:26:05.586Z,12.15
2023-05-05T21:34:14.739Z,11.93
2023-05-05T21:37:31.913Z,11.53
2023-05-05T21:40:48.538Z,10.73
2023-05-05T21:44:05.738Z,10.88
2023-05-05T21:50:40.109Z,9.30
2023-05-05T21:53:58.228Z,10.05
2023-05-05T21:57:14.852Z,9.53
2023-05-05T22:03:48.331Z,8.68
2023-05-05T22:07:06.589Z,8.00
2023-05-05T22:10:24.140Z,8.78
2023-05-05T22:13:41.936Z,8.18
2023-05-05T22:17:04.044Z,7.53
2023-05-05T22:20:22.569Z,8.08
2023-05-05T22:23:41.430Z,8.05
2023-05-05T22:26:58.380Z,8.20
2023-05-05T22:30:17.931Z,7.93
2023-05-05T22:33:34.827Z,7.20
2023-05-05T22:36:51.323Z,7.00
2023-05-05T22:40:09.668Z,6.83
2023-05-05T22:43:27.577Z,7.90
2023-05-05T22:46:45.239Z,6.90
2023-05-05T22:50:05.057Z,7.50
2023-05-05T22:53:21.473Z,6.70
2023-05-05T22:56:37.987Z,7.23
2023-05-05T23:03:11.213Z,6.75
2023-05-05T23:06:29.333Z,6.38
2023-05-05T23:09:46.185Z,6.70
2023-05-05T23:13:02.667Z,6.45
2023-05-05T23:19:35.965Z,6.50
2023-05-05T23:22:52.346Z,6.48
2023-05-05T23:26:09.434Z,6.60
2023-05-05T23:29:26.073Z,6.20
2023-05-05T23:32:43.795Z,6.58
2023-05-05T23:36:15.338Z,6.40
2023-05-05T23:39:32.162Z,6.75
2023-05-05T23:42:49.134Z,6.03
2023-05-05T23:46:05.710Z,6.70
2023-05-05T23:49:22.288Z,6.40
2023-05-05T23:52:39.158Z,6.33
2023-05-05T23:55:56.262Z,5.70
2023-05-05T23:59:12.574Z,5.88
